sensor_id;sensor_type;location;lat;lon;timestamp;temperature;humidity
15947;DHT22;8072;52.554;7.966;2024-02-28T00:00:38;0.70;99.90
15947;DHT22;8072;52.554;7.966;2024-02-28T00:03:04;0.70;99.90
15947;DHT22;8072;52.554;7.966;2024-02-28T00:05:31;0.60;99.90
15947;DHT22;8072;52.554;7.966;2024-02-28T00:07:57;0.60;99.90
15947;DHT22;8072;52.554;7.966;2024-02-28T00:10:23;0.70;99.90
15947;DHT22;8072;52.554;7.966;2024-02-28T00:12:48;0.70;99.90
15947;DHT22;8072;52.554;7.966;2024-02-28T00:15:14;0.60;99.90
15947;DHT22;8072;52.554;7.966;2024-02-28T00:17:41;0.60;99.90
15947;DHT22;8072;52.554;7.966;2024-02-28T00:20:08;0.60;99.90
15947;DHT22;8072;52.554;7.966;2024-02-28T00:22:38;0.60;99.90
15947;DHT22;8072;52.554;7.966;2024-02-28T00:25:04;0.60;99.90
15947;DHT22;8072;52.554;7.966;2024-02-28T00:27:32;0.60;99.90
15947;DHT22;8072;52.554;7.966;2024-02-28T00:29:59;0.60;99.90
15947;DHT22;8072;52.554;7.966;2024-02-28T00:32:25;0.60;99.90
15947;DHT22;8072;52.554;7.966;2024-02-28T00:34:50;0.60;99.90
15947;DHT22;8072;52.554;7.966;2024-02-28T00:37:16;0.50;99.90
15947;DHT22;8072;52.554;7.966;2024-02-28T00:39:44;0.50;99.90
15947;DHT22;8072;52.554;7.966;2024-02-28T00:42:10;0.50;99.90
15947;DHT22;8072;52.554;7.966;2024-02-28T00:44:36;0.50;99.90
15947;DHT22;8072;52.554;7.966;2024-02-28T00:47:02;0.50;99.90
15947;DHT22;8072;52.554;7.966;2024-02-28T00:49:28;0.40;99.90
15947;DHT22;8072;52.554;7.966;2024-02-28T00:51:53;0.40;99.90
15947;DHT22;8072;52.554;7.966;2024-02-28T00:54:19;0.40;99.90
15947;DHT22;8072;52.554;7.966;2024-02-28T00:56:48;0.40;99.90
15947;DHT22;8072;52.554;7.966;2024-02-28T00:59:13;0.30;99.90
15947;DHT22;8072;52.554;7.966;2024-02-28T01:01:40;0.30;99.90
15947;DHT22;8072;52.554;7.966;2024-02-28T01:04:05;0.30;99.90
15947;DHT22;8072;52.554;7.966;2024-02-28T01:06:31;0.30;99.90
15947;DHT22;8072;52.554;7.966;2024-02-28T01:08:57;0.20;99.90
15947;DHT22;8072;52.554;7.966;2024-02-28T01:11:23;0.20;99.90
15947;DHT22;8072;52.554;7.966;2024-02-28T01:13:49;0.20;99.90
15947;DHT22;8072;52.554;7.966;2024-02-28T01:16:14;0.20;99.90
15947;DHT22;8072;52.554;7.966;2024-02-28T01:18:40;0.20;99.90
15947;DHT22;8072;52.554;7.966;2024-02-28T01:21:06;0.20;99.90
15947;DHT22;8072;52.554;7.966;2024-02-28T01:23:32;0.20;99.90
15947;DHT22;8072;52.554;7.966;2024-02-28T01:25:58;0.20;99.90
15947;DHT22;8072;52.554;7.966;2024-02-28T01:28:23;0.20;99.90
15947;DHT22;8072;52.554;7.966;2024-02-28T01:30:49;0.20;99.90
15947;DHT22;8072;52.554;7.966;2024-02-28T01:33:15;0.20;99.90
15947;DHT22;8072;52.554;7.966;2024-02-28T01:35:41;0.20;99.90
15947;DHT22;8072;52.554;7.966;2024-02-28T01:38:07;0.20;99.90
15947;DHT22;8072;52.554;7.966;2024-02-28T01:40:33;0.20;99.90
15947;DHT22;8072;52.554;7.966;2024-02-28T01:43:08;0.20;99.90
15947;DHT22;8072;52.554;7.966;2024-02-28T01:45:34;0.10;99.90
15947;DHT22;8072;52.554;7.966;2024-02-28T01:48:01;0.20;99.90
15947;DHT22;8072;52.554;7.966;2024-02-28T01:50:27;0.10;99.90
15947;DHT22;8072;52.554;7.966;2024-02-28T01:52:52;0.00;99.90
15947;DHT22;8072;52.554;7.966;2024-02-28T01:55:18;0.00;99.90
15947;DHT22;8072;52.554;7.966;2024-02-28T01:57:44;0.00;99.90
15947;DHT22;8072;52.554;7.966;2024-02-28T02:00:11;-0.10;99.90
15947;DHT22;8072;52.554;7.966;2024-02-28T02:02:37;-0.10;99.90
15947;DHT22;8072;52.554;7.966;2024-02-28T02:05:03;-0.10;99.90
15947;DHT22;8072;52.554;7.966;2024-02-28T02:07:30;-0.10;99.90
15947;DHT22;8072;52.554;7.966;2024-02-28T02:09:56;-0.10;99.90
15947;DHT22;8072;52.554;7.966;2024-02-28T02:12:22;-0.10;99.90
15947;DHT22;8072;52.554;7.966;2024-02-28T02:14:51;-0.10;99.90
15947;DHT22;8072;52.554;7.966;2024-02-28T02:17:16;0.00;99.90
15947;DHT22;8072;52.554;7.966;2024-02-28T02:19:42;0.00;99.90
15947;DHT22;8072;52.554;7.966;2024-02-28T02:22:09;0.00;99.90
15947;DHT22;8072;52.554;7.966;2024-02-28T02:24:35;-0.10;99.90
15947;DHT22;8072;52.554;7.966;2024-02-28T02:27:02;-0.10;99.90
15947;DHT22;8072;52.554;7.966;2024-02-28T02:29:30;-0.20;99.90
15947;DHT22;8072;52.554;7.966;2024-02-28T02:31:56;-0.10;99.90
15947;DHT22;8072;52.554;7.966;2024-02-28T02:34:22;-0.10;99.90
15947;DHT22;8072;52.554;7.966;2024-02-28T02:36:48;0.00;99.90
15947;DHT22;8072;52.554;7.966;2024-02-28T02:39:13;0.10;99.90
15947;DHT22;8072;52.554;7.966;2024-02-28T02:41:40;0.10;99.90
15947;DHT22;8072;52.554;7.966;2024-02-28T02:44:07;0.20;99.90
15947;DHT22;8072;52.554;7.966;2024-02-28T02:46:33;0.30;99.90
15947;DHT22;8072;52.554;7.966;2024-02-28T02:48:59;0.30;99.90
15947;DHT22;8072;52.554;7.966;2024-02-28T02:51:25;0.40;99.90
15947;DHT22;8072;52.554;7.966;2024-02-28T02:53:52;0.40;99.90
15947;DHT22;8072;52.554;7.966;2024-02-28T02:56:19;0.40;99.90
15947;DHT22;8072;52.554;7.966;2024-02-28T02:58:45;0.50;99.90
15947;DHT22;8072;52.554;7.966;2024-02-28T03:01:10;0.50;99.90
15947;DHT22;8072;52.554;7.966;2024-02-28T03:03:36;0.50;99.90
15947;DHT22;8072;52.554;7.966;2024-02-28T03:06:04;0.50;99.90
15947;DHT22;8072;52.554;7.966;2024-02-28T03:08:30;0.50;99.90
15947;DHT22;8072;52.554;7.966;2024-02-28T03:10:56;0.50;99.90
15947;DHT22;8072;52.554;7.966;2024-02-28T03:13:22;0.50;99.90
15947;DHT22;8072;52.554;7.966;2024-02-28T03:15:48;0.50;99.90
15947;DHT22;8072;52.554;7.966;2024-02-28T03:18:14;0.50;99.90
15947;DHT22;8072;52.554;7.966;2024-02-28T03:20:40;0.50;99.90
15947;DHT22;8072;52.554;7.966;2024-02-28T03:23:06;0.50;99.90
15947;DHT22;8072;52.554;7.966;2024-02-28T03:25:32;0.50;99.90
15947;DHT22;8072;52.554;7.966;2024-02-28T03:27:58;0.40;99.90
15947;DHT22;8072;52.554;7.966;2024-02-28T03:30:25;0.40;99.90
15947;DHT22;8072;52.554;7.966;2024-02-28T03:32:51;0.40;99.90
15947;DHT22;8072;52.554;7.966;2024-02-28T03:35:17;0.50;99.90
15947;DHT22;8072;52.554;7.966;2024-02-28T03:37:43;0.50;99.90
15947;DHT22;8072;52.554;7.966;2024-02-28T03:40:09;0.50;99.90
15947;DHT22;8072;52.554;7.966;2024-02-28T03:42:35;0.50;99.90
15947;DHT22;8072;52.554;7.966;2024-02-28T03:45:01;0.40;99.90
15947;DHT22;8072;52.554;7.966;2024-02-28T03:47:27;0.50;99.90
15947;DHT22;8072;52.554;7.966;2024-02-28T03:49:53;0.40;99.90
15947;DHT22;8072;52.554;7.966;2024-02-28T03:52:23;0.40;99.90
15947;DHT22;8072;52.554;7.966;2024-02-28T03:54:50;0.40;99.90
15947;DHT22;8072;52.554;7.966;2024-02-28T03:57:16;0.40;99.90
15947;DHT22;8072;52.554;7.966;2024-02-28T03:59:42;0.40;99.90
15947;DHT22;8072;52.554;7.966;2024-02-28T04:02:08;0.40;99.90
15947;DHT22;8072;52.554;7.966;2024-02-28T04:04:34;0.40;99.90
15947;DHT22;8072;52.554;7.966;2024-02-28T04:07:00;0.40;99.90
15947;DHT22;8072;52.554;7.966;2024-02-28T04:09:26;0.40;99.90
15947;DHT22;8072;52.554;7.966;2024-02-28T04:11:52;0.40;99.90
15947;DHT22;8072;52.554;7.966;2024-02-28T04:14:18;0.40;99.90
15947;DHT22;8072;52.554;7.966;2024-02-28T04:16:44;0.40;99.90
15947;DHT22;8072;52.554;7.966;2024-02-28T04:19:11;0.40;99.90
15947;DHT22;8072;52.554;7.966;2024-02-28T04:21:36;0.40;99.90
15947;DHT22;8072;52.554;7.966;2024-02-28T04:24:03;0.40;99.90
15947;DHT22;8072;52.554;7.966;2024-02-28T04:26:29;0.40;99.90
15947;DHT22;8072;52.554;7.966;2024-02-28T04:28:55;0.40;99.90
15947;DHT22;8072;52.554;7.966;2024-02-28T04:31:22;0.40;99.90
15947;DHT22;8072;52.554;7.966;2024-02-28T04:33:49;0.30;99.90
15947;DHT22;8072;52.554;7.966;2024-02-28T04:36:14;0.30;99.90
15947;DHT22;8072;52.554;7.966;2024-02-28T04:38:41;0.30;99.90
15947;DHT22;8072;52.554;7.966;2024-02-28T04:41:07;0.30;99.90
15947;DHT22;8072;52.554;7.966;2024-02-28T04:43:33;0.30;99.90
15947;DHT22;8072;52.554;7.966;2024-02-28T04:45:59;0.40;99.90
15947;DHT22;8072;52.554;7.966;2024-02-28T04:48:25;0.40;99.90
15947;DHT22;8072;52.554;7.966;2024-02-28T04:50:51;0.40;99.90
15947;DHT22;8072;52.554;7.966;2024-02-28T04:53:17;0.40;99.90
15947;DHT22;8072;52.554;7.966;2024-02-28T04:55:43;0.50;99.90
15947;DHT22;8072;52.554;7.966;2024-02-28T04:58:08;0.50;99.90
15947;DHT22;8072;52.554;7.966;2024-02-28T05:00:34;0.50;99.90
15947;DHT22;8072;52.554;7.966;2024-02-28T05:03:00;0.50;99.90
15947;DHT22;8072;52.554;7.966;2024-02-28T05:05:26;0.50;99.90
15947;DHT22;8072;52.554;7.966;2024-02-28T05:07:52;0.50;99.90
15947;DHT22;8072;52.554;7.966;2024-02-28T05:10:17;0.50;99.90
15947;DHT22;8072;52.554;7.966;2024-02-28T05:12:43;0.50;99.90
15947;DHT22;8072;52.554;7.966;2024-02-28T05:15:09;0.50;99.90
15947;DHT22;8072;52.554;7.966;2024-02-28T05:17:35;0.50;99.90
15947;DHT22;8072;52.554;7.966;2024-02-28T05:20:01;0.50;99.90
15947;DHT22;8072;52.554;7.966;2024-02-28T05:22:27;0.50;99.90
15947;DHT22;8072;52.554;7.966;2024-02-28T05:24:52;0.40;99.90
15947;DHT22;8072;52.554;7.966;2024-02-28T05:27:19;0.40;99.90
15947;DHT22;8072;52.554;7.966;2024-02-28T05:29:45;0.30;99.90
15947;DHT22;8072;52.554;7.966;2024-02-28T05:32:10;0.30;99.90
15947;DHT22;8072;52.554;7.966;2024-02-28T05:34:37;0.40;99.90
15947;DHT22;8072;52.554;7.966;2024-02-28T05:37:03;0.40;99.90
15947;DHT22;8072;52.554;7.966;2024-02-28T05:39:28;0.40;99.90
15947;DHT22;8072;52.554;7.966;2024-02-28T05:41:57;0.30;99.90
15947;DHT22;8072;52.554;7.966;2024-02-28T05:44:23;0.30;99.90
15947;DHT22;8072;52.554;7.966;2024-02-28T05:46:51;0.30;99.90
15947;DHT22;8072;52.554;7.966;2024-02-28T05:49:17;0.30;99.90
15947;DHT22;8072;52.554;7.966;2024-02-28T05:51:44;0.30;99.90
15947;DHT22;8072;52.554;7.966;2024-02-28T05:54:10;0.30;99.90
15947;DHT22;8072;52.554;7.966;2024-02-28T05:56:36;0.30;99.90
15947;DHT22;8072;52.554;7.966;2024-02-28T05:59:01;0.30;99.90
15947;DHT22;8072;52.554;7.966;2024-02-28T06:01:28;0.30;99.90
15947;DHT22;8072;52.554;7.966;2024-02-28T06:03:53;0.30;99.90
15947;DHT22;8072;52.554;7.966;2024-02-28T06:06:19;0.30;99.90
15947;DHT22;8072;52.554;7.966;2024-02-28T06:08:45;0.40;99.90
15947;DHT22;8072;52.554;7.966;2024-02-28T06:11:11;0.40;99.90
15947;DHT22;8072;52.554;7.966;2024-02-28T06:13:37;0.30;99.90
15947;DHT22;8072;52.554;7.966;2024-02-28T06:16:03;0.30;99.90
15947;DHT22;8072;52.554;7.966;2024-02-28T06:18:29;0.40;99.90
15947;DHT22;8072;52.554;7.966;2024-02-28T06:20:58;0.40;99.90
15947;DHT22;8072;52.554;7.966;2024-02-28T06:23:25;0.40;99.90
15947;DHT22;8072;52.554;7.966;2024-02-28T06:25:51;0.40;99.90
15947;DHT22;8072;52.554;7.966;2024-02-28T06:28:17;0.40;99.90
15947;DHT22;8072;52.554;7.966;2024-02-28T06:30:44;0.40;99.90
15947;DHT22;8072;52.554;7.966;2024-02-28T06:33:12;0.50;99.90
15947;DHT22;8072;52.554;7.966;2024-02-28T06:35:38;0.50;99.90
15947;DHT22;8072;52.554;7.966;2024-02-28T06:38:04;0.50;99.90
15947;DHT22;8072;52.554;7.966;2024-02-28T06:40:30;0.50;99.90
15947;DHT22;8072;52.554;7.966;2024-02-28T06:42:57;0.60;99.90
15947;DHT22;8072;52.554;7.966;2024-02-28T06:45:23;0.60;99.90
15947;DHT22;8072;52.554;7.966;2024-02-28T06:47:49;0.60;99.90
15947;DHT22;8072;52.554;7.966;2024-02-28T06:50:16;0.70;99.90
15947;DHT22;8072;52.554;7.966;2024-02-28T06:52:43;0.70;99.90
15947;DHT22;8072;52.554;7.966;2024-02-28T06:55:08;0.70;99.90
15947;DHT22;8072;52.554;7.966;2024-02-28T06:57:42;0.70;99.90
15947;DHT22;8072;52.554;7.966;2024-02-28T07:00:10;0.70;99.90
15947;DHT22;8072;52.554;7.966;2024-02-28T07:02:44;0.70;99.90
15947;DHT22;8072;52.554;7.966;2024-02-28T07:05:10;0.70;99.90
15947;DHT22;8072;52.554;7.966;2024-02-28T07:07:36;0.70;99.90
15947;DHT22;8072;52.554;7.966;2024-02-28T07:10:03;0.70;99.90
15947;DHT22;8072;52.554;7.966;2024-02-28T07:12:30;0.70;99.90
15947;DHT22;8072;52.554;7.966;2024-02-28T07:14:56;0.70;99.90
15947;DHT22;8072;52.554;7.966;2024-02-28T07:17:21;0.60;99.90
15947;DHT22;8072;52.554;7.966;2024-02-28T07:19:48;0.60;99.90
15947;DHT22;8072;52.554;7.966;2024-02-28T07:22:13;0.70;99.90
15947;DHT22;8072;52.554;7.966;2024-02-28T07:24:39;0.70;99.90
15947;DHT22;8072;52.554;7.966;2024-02-28T07:27:05;0.70;99.90
15947;DHT22;8072;52.554;7.966;2024-02-28T07:29:31;0.70;99.90
15947;DHT22;8072;52.554;7.966;2024-02-28T07:31:57;0.70;99.90
15947;DHT22;8072;52.554;7.966;2024-02-28T07:34:22;0.70;99.90
15947;DHT22;8072;52.554;7.966;2024-02-28T07:36:48;0.70;99.90
15947;DHT22;8072;52.554;7.966;2024-02-28T07:39:14;0.70;99.90
15947;DHT22;8072;52.554;7.966;2024-02-28T07:41:40;0.70;99.90
15947;DHT22;8072;52.554;7.966;2024-02-28T07:44:07;0.70;99.90
15947;DHT22;8072;52.554;7.966;2024-02-28T07:46:34;0.70;99.90
15947;DHT22;8072;52.554;7.966;2024-02-28T07:49:02;0.80;99.90
15947;DHT22;8072;52.554;7.966;2024-02-28T07:51:29;0.80;99.90
15947;DHT22;8072;52.554;7.966;2024-02-28T07:53:55;0.80;99.90
15947;DHT22;8072;52.554;7.966;2024-02-28T07:56:21;0.80;99.90
15947;DHT22;8072;52.554;7.966;2024-02-28T07:58:47;0.90;99.90
15947;DHT22;8072;52.554;7.966;2024-02-28T08:01:13;0.90;99.90
15947;DHT22;8072;52.554;7.966;2024-02-28T08:03:39;0.90;99.90
15947;DHT22;8072;52.554;7.966;2024-02-28T08:06:06;0.90;99.90
15947;DHT22;8072;52.554;7.966;2024-02-28T08:08:32;0.90;99.90
15947;DHT22;8072;52.554;7.966;2024-02-28T08:10:57;1.00;99.90
15947;DHT22;8072;52.554;7.966;2024-02-28T08:13:23;1.00;99.90
15947;DHT22;8072;52.554;7.966;2024-02-28T08:15:49;1.00;99.90
15947;DHT22;8072;52.554;7.966;2024-02-28T08:18:14;1.00;99.90
15947;DHT22;8072;52.554;7.966;2024-02-28T08:20:40;1.00;99.90
15947;DHT22;8072;52.554;7.966;2024-02-28T08:23:06;1.10;99.90
15947;DHT22;8072;52.554;7.966;2024-02-28T08:25:32;1.10;99.90
15947;DHT22;8072;52.554;7.966;2024-02-28T08:27:58;1.10;99.90
15947;DHT22;8072;52.554;7.966;2024-02-28T08:30:24;1.10;99.90
15947;DHT22;8072;52.554;7.966;2024-02-28T08:32:53;1.10;99.90
15947;DHT22;8072;52.554;7.966;2024-02-28T08:35:19;1.10;99.90
15947;DHT22;8072;52.554;7.966;2024-02-28T08:37:45;1.20;99.90
15947;DHT22;8072;52.554;7.966;2024-02-28T08:40:11;1.20;99.90
15947;DHT22;8072;52.554;7.966;2024-02-28T08:42:38;1.20;99.90
15947;DHT22;8072;52.554;7.966;2024-02-28T08:45:04;1.20;99.90
15947;DHT22;8072;52.554;7.966;2024-02-28T08:47:31;1.30;99.90
15947;DHT22;8072;52.554;7.966;2024-02-28T08:49:57;1.30;99.90
15947;DHT22;8072;52.554;7.966;2024-02-28T08:52:23;1.40;99.90
15947;DHT22;8072;52.554;7.966;2024-02-28T08:54:49;1.40;99.90
15947;DHT22;8072;52.554;7.966;2024-02-28T08:57:15;1.50;99.90
15947;DHT22;8072;52.554;7.966;2024-02-28T08:59:41;1.50;99.90
15947;DHT22;8072;52.554;7.966;2024-02-28T09:02:07;1.60;99.90
15947;DHT22;8072;52.554;7.966;2024-02-28T09:04:34;1.60;99.90
15947;DHT22;8072;52.554;7.966;2024-02-28T09:07:00;1.60;99.90
15947;DHT22;8072;52.554;7.966;2024-02-28T09:09:26;1.70;99.90
15947;DHT22;8072;52.554;7.966;2024-02-28T09:11:54;1.70;99.90
15947;DHT22;8072;52.554;7.966;2024-02-28T09:14:19;1.70;99.90
15947;DHT22;8072;52.554;7.966;2024-02-28T09:16:45;1.80;99.90
15947;DHT22;8072;52.554;7.966;2024-02-28T09:19:11;1.80;99.90
15947;DHT22;8072;52.554;7.966;2024-02-28T09:21:37;1.80;99.90
15947;DHT22;8072;52.554;7.966;2024-02-28T09:24:03;1.90;99.90
15947;DHT22;8072;52.554;7.966;2024-02-28T09:26:29;1.90;99.90
15947;DHT22;8072;52.554;7.966;2024-02-28T09:28:55;2.00;99.90
15947;DHT22;8072;52.554;7.966;2024-02-28T09:31:21;2.00;99.90
15947;DHT22;8072;52.554;7.966;2024-02-28T09:33:47;2.10;99.90
15947;DHT22;8072;52.554;7.966;2024-02-28T09:36:14;2.10;99.90
15947;DHT22;8072;52.554;7.966;2024-02-28T09:38:41;2.20;99.90
15947;DHT22;8072;52.554;7.966;2024-02-28T09:41:08;2.20;99.90
15947;DHT22;8072;52.554;7.966;2024-02-28T09:43:41;2.20;99.90
15947;DHT22;8072;52.554;7.966;2024-02-28T09:46:08;2.40;99.90
15947;DHT22;8072;52.554;7.966;2024-02-28T09:48:40;2.40;99.90
15947;DHT22;8072;52.554;7.966;2024-02-28T09:51:09;2.60;99.90
15947;DHT22;8072;52.554;7.966;2024-02-28T09:53:38;2.60;99.90
15947;DHT22;8072;52.554;7.966;2024-02-28T09:56:06;2.70;99.90
15947;DHT22;8072;52.554;7.966;2024-02-28T09:58:32;2.80;99.90
15947;DHT22;8072;52.554;7.966;2024-02-28T10:01:02;2.90;99.90
15947;DHT22;8072;52.554;7.966;2024-02-28T10:03:31;3.00;99.90
15947;DHT22;8072;52.554;7.966;2024-02-28T10:05:58;3.10;99.90
15947;DHT22;8072;52.554;7.966;2024-02-28T10:08:24;3.20;99.90
15947;DHT22;8072;52.554;7.966;2024-02-28T10:10:50;3.30;99.90
15947;DHT22;8072;52.554;7.966;2024-02-28T10:13:20;3.30;99.90
15947;DHT22;8072;52.554;7.966;2024-02-28T10:15:48;3.40;99.90
15947;DHT22;8072;52.554;7.966;2024-02-28T10:18:14;3.40;99.90
15947;DHT22;8072;52.554;7.966;2024-02-28T10:20:40;3.50;99.90
15947;DHT22;8072;52.554;7.966;2024-02-28T10:23:06;3.60;99.90
15947;DHT22;8072;52.554;7.966;2024-02-28T10:25:41;3.60;99.90
15947;DHT22;8072;52.554;7.966;2024-02-28T10:28:07;3.70;99.90
15947;DHT22;8072;52.554;7.966;2024-02-28T10:30:32;3.70;99.90
15947;DHT22;8072;52.554;7.966;2024-02-28T10:32:58;3.80;99.90
15947;DHT22;8072;52.554;7.966;2024-02-28T10:35:24;3.90;99.90
15947;DHT22;8072;52.554;7.966;2024-02-28T10:37:52;3.90;99.90
15947;DHT22;8072;52.554;7.966;2024-02-28T10:40:20;4.00;99.90
15947;DHT22;8072;52.554;7.966;2024-02-28T10:42:48;4.10;99.90
15947;DHT22;8072;52.554;7.966;2024-02-28T10:45:17;4.20;99.90
15947;DHT22;8072;52.554;7.966;2024-02-28T10:47:45;4.30;99.90
15947;DHT22;8072;52.554;7.966;2024-02-28T10:50:13;4.40;99.90
15947;DHT22;8072;52.554;7.966;2024-02-28T10:52:44;4.50;99.90
15947;DHT22;8072;52.554;7.966;2024-02-28T10:55:13;4.50;99.90
15947;DHT22;8072;52.554;7.966;2024-02-28T10:57:43;4.60;99.90
15947;DHT22;8072;52.554;7.966;2024-02-28T11:00:11;4.70;99.90
15947;DHT22;8072;52.554;7.966;2024-02-28T11:02:38;4.80;99.90
15947;DHT22;8072;52.554;7.966;2024-02-28T11:05:05;4.80;99.90
15947;DHT22;8072;52.554;7.966;2024-02-28T11:07:31;4.90;99.90
15947;DHT22;8072;52.554;7.966;2024-02-28T11:10:03;4.90;99.90
15947;DHT22;8072;52.554;7.966;2024-02-28T11:12:31;4.90;99.90
15947;DHT22;8072;52.554;7.966;2024-02-28T11:15:00;4.90;99.90
15947;DHT22;8072;52.554;7.966;2024-02-28T11:17:29;4.90;99.90
15947;DHT22;8072;52.554;7.966;2024-02-28T11:19:55;5.00;99.90
15947;DHT22;8072;52.554;7.966;2024-02-28T11:22:21;5.00;99.90
15947;DHT22;8072;52.554;7.966;2024-02-28T11:24:48;5.10;99.90
15947;DHT22;8072;52.554;7.966;2024-02-28T11:27:18;5.10;99.90
15947;DHT22;8072;52.554;7.966;2024-02-28T11:29:43;5.10;99.90
15947;DHT22;8072;52.554;7.966;2024-02-28T11:32:13;5.20;99.90
15947;DHT22;8072;52.554;7.966;2024-02-28T11:34:39;5.10;99.90
15947;DHT22;8072;52.554;7.966;2024-02-28T11:37:06;5.10;99.90
15947;DHT22;8072;52.554;7.966;2024-02-28T11:39:32;5.10;99.90
15947;DHT22;8072;52.554;7.966;2024-02-28T11:42:11;5.20;99.90
15947;DHT22;8072;52.554;7.966;2024-02-28T11:44:39;5.20;99.90
15947;DHT22;8072;52.554;7.966;2024-02-28T11:47:07;5.30;99.90
15947;DHT22;8072;52.554;7.966;2024-02-28T11:49:34;5.30;99.90
15947;DHT22;8072;52.554;7.966;2024-02-28T11:52:00;5.20;99.90
15947;DHT22;8072;52.554;7.966;2024-02-28T11:54:26;5.30;99.90
15947;DHT22;8072;52.554;7.966;2024-02-28T11:56:52;5.30;99.90
15947;DHT22;8072;52.554;7.966;2024-02-28T11:59:17;5.40;99.90
15947;DHT22;8072;52.554;7.966;2024-02-28T12:01:45;5.50;99.90
15947;DHT22;8072;52.554;7.966;2024-02-28T12:04:12;5.50;99.90
15947;DHT22;8072;52.554;7.966;2024-02-28T12:06:39;5.60;99.90
15947;DHT22;8072;52.554;7.966;2024-02-28T12:09:12;5.60;99.90
15947;DHT22;8072;52.554;7.966;2024-02-28T12:11:40;5.70;99.90
15947;DHT22;8072;52.554;7.966;2024-02-28T12:14:09;5.70;99.90
15947;DHT22;8072;52.554;7.966;2024-02-28T12:16:38;5.80;99.90
15947;DHT22;8072;52.554;7.966;2024-02-28T12:19:12;5.80;99.90
15947;DHT22;8072;52.554;7.966;2024-02-28T12:21:39;5.90;99.90
15947;DHT22;8072;52.554;7.966;2024-02-28T12:24:09;6.00;99.90
15947;DHT22;8072;52.554;7.966;2024-02-28T12:26:36;6.00;99.90
15947;DHT22;8072;52.554;7.966;2024-02-28T12:29:01;6.00;99.90
15947;DHT22;8072;52.554;7.966;2024-02-28T12:31:28;6.00;99.90
15947;DHT22;8072;52.554;7.966;2024-02-28T12:33:55;6.10;99.90
15947;DHT22;8072;52.554;7.966;2024-02-28T12:36:21;6.00;99.90
15947;DHT22;8072;52.554;7.966;2024-02-28T12:38:47;6.00;99.90
15947;DHT22;8072;52.554;7.966;2024-02-28T12:41:14;6.10;99.90
15947;DHT22;8072;52.554;7.966;2024-02-28T12:43:41;6.10;99.90
15947;DHT22;8072;52.554;7.966;2024-02-28T12:46:06;6.30;99.90
15947;DHT22;8072;52.554;7.966;2024-02-28T12:48:39;6.40;99.90
15947;DHT22;8072;52.554;7.966;2024-02-28T12:51:08;6.40;99.90
15947;DHT22;8072;52.554;7.966;2024-02-28T12:53:36;6.40;99.90
15947;DHT22;8072;52.554;7.966;2024-02-28T12:56:02;6.30;99.90
15947;DHT22;8072;52.554;7.966;2024-02-28T12:58:28;6.40;99.90
15947;DHT22;8072;52.554;7.966;2024-02-28T13:00:54;6.50;99.90
15947;DHT22;8072;52.554;7.966;2024-02-28T13:03:19;6.40;99.90
15947;DHT22;8072;52.554;7.966;2024-02-28T13:05:45;6.50;99.90
15947;DHT22;8072;52.554;7.966;2024-02-28T13:08:11;6.50;99.90
15947;DHT22;8072;52.554;7.966;2024-02-28T13:10:37;6.50;99.90
15947;DHT22;8072;52.554;7.966;2024-02-28T13:13:07;6.50;99.90
15947;DHT22;8072;52.554;7.966;2024-02-28T13:15:33;6.40;99.90
15947;DHT22;8072;52.554;7.966;2024-02-28T13:17:59;6.40;99.90
15947;DHT22;8072;52.554;7.966;2024-02-28T13:20:27;6.40;99.90
15947;DHT22;8072;52.554;7.966;2024-02-28T13:22:53;6.40;99.90
15947;DHT22;8072;52.554;7.966;2024-02-28T13:25:19;6.50;99.90
15947;DHT22;8072;52.554;7.966;2024-02-28T13:27:46;6.50;99.90
15947;DHT22;8072;52.554;7.966;2024-02-28T13:30:12;6.50;99.90
15947;DHT22;8072;52.554;7.966;2024-02-28T13:32:39;6.50;99.90
15947;DHT22;8072;52.554;7.966;2024-02-28T13:35:05;6.50;99.90
15947;DHT22;8072;52.554;7.966;2024-02-28T13:37:31;6.50;99.90
15947;DHT22;8072;52.554;7.966;2024-02-28T13:39:59;6.50;99.90
15947;DHT22;8072;52.554;7.966;2024-02-28T13:42:25;6.50;99.90
15947;DHT22;8072;52.554;7.966;2024-02-28T13:44:51;6.60;99.90
15947;DHT22;8072;52.554;7.966;2024-02-28T13:47:18;6.60;99.90
15947;DHT22;8072;52.554;7.966;2024-02-28T13:49:44;6.60;99.90
15947;DHT22;8072;52.554;7.966;2024-02-28T13:52:10;6.60;99.90
15947;DHT22;8072;52.554;7.966;2024-02-28T13:54:37;6.60;99.90
15947;DHT22;8072;52.554;7.966;2024-02-28T13:57:03;6.60;99.90
15947;DHT22;8072;52.554;7.966;2024-02-28T13:59:30;6.60;99.90
15947;DHT22;8072;52.554;7.966;2024-02-28T14:01:57;6.60;99.90
15947;DHT22;8072;52.554;7.966;2024-02-28T14:04:24;6.60;99.90
15947;DHT22;8072;52.554;7.966;2024-02-28T14:06:50;6.70;99.90
15947;DHT22;8072;52.554;7.966;2024-02-28T14:09:15;6.60;99.90
15947;DHT22;8072;52.554;7.966;2024-02-28T14:11:41;6.60;99.90
15947;DHT22;8072;52.554;7.966;2024-02-28T14:14:07;6.70;99.90
15947;DHT22;8072;52.554;7.966;2024-02-28T14:16:33;6.70;99.90
15947;DHT22;8072;52.554;7.966;2024-02-28T14:18:59;6.70;99.90
15947;DHT22;8072;52.554;7.966;2024-02-28T14:21:25;6.70;99.90
15947;DHT22;8072;52.554;7.966;2024-02-28T14:23:51;6.70;99.90
15947;DHT22;8072;52.554;7.966;2024-02-28T14:26:17;6.60;99.90
15947;DHT22;8072;52.554;7.966;2024-02-28T14:28:43;6.60;99.90
15947;DHT22;8072;52.554;7.966;2024-02-28T14:31:09;6.60;99.90
15947;DHT22;8072;52.554;7.966;2024-02-28T14:33:35;6.70;99.90
15947;DHT22;8072;52.554;7.966;2024-02-28T14:36:02;6.70;99.90
15947;DHT22;8072;52.554;7.966;2024-02-28T14:38:31;6.60;99.90
15947;DHT22;8072;52.554;7.966;2024-02-28T14:40:57;6.60;99.90
15947;DHT22;8072;52.554;7.966;2024-02-28T14:43:23;6.60;99.90
15947;DHT22;8072;52.554;7.966;2024-02-28T14:45:49;6.70;99.90
15947;DHT22;8072;52.554;7.966;2024-02-28T14:48:14;6.60;99.90
15947;DHT22;8072;52.554;7.966;2024-02-28T14:50:40;6.50;99.90
15947;DHT22;8072;52.554;7.966;2024-02-28T14:53:08;6.50;99.90
15947;DHT22;8072;52.554;7.966;2024-02-28T14:55:34;6.50;99.90
15947;DHT22;8072;52.554;7.966;2024-02-28T14:57:59;6.60;99.90
15947;DHT22;8072;52.554;7.966;2024-02-28T15:00:27;6.50;99.90
15947;DHT22;8072;52.554;7.966;2024-02-28T15:02:53;6.50;99.90
15947;DHT22;8072;52.554;7.966;2024-02-28T15:05:19;6.50;99.90
15947;DHT22;8072;52.554;7.966;2024-02-28T15:07:45;6.50;99.90
15947;DHT22;8072;52.554;7.966;2024-02-28T15:10:12;6.40;99.90
15947;DHT22;8072;52.554;7.966;2024-02-28T15:12:39;6.50;99.90
15947;DHT22;8072;52.554;7.966;2024-02-28T15:15:06;6.60;99.90
15947;DHT22;8072;52.554;7.966;2024-02-28T15:17:33;6.60;99.90
15947;DHT22;8072;52.554;7.966;2024-02-28T15:20:00;6.50;99.90
15947;DHT22;8072;52.554;7.966;2024-02-28T15:22:29;6.60;99.90
15947;DHT22;8072;52.554;7.966;2024-02-28T15:24:56;6.70;99.90
15947;DHT22;8072;52.554;7.966;2024-02-28T15:27:22;6.60;99.90
15947;DHT22;8072;52.554;7.966;2024-02-28T15:29:47;6.60;99.90
15947;DHT22;8072;52.554;7.966;2024-02-28T15:32:13;6.40;99.90
15947;DHT22;8072;52.554;7.966;2024-02-28T15:34:39;6.40;99.90
15947;DHT22;8072;52.554;7.966;2024-02-28T15:37:05;6.40;99.90
15947;DHT22;8072;52.554;7.966;2024-02-28T15:39:31;6.40;99.90
15947;DHT22;8072;52.554;7.966;2024-02-28T15:41:57;6.40;99.90
15947;DHT22;8072;52.554;7.966;2024-02-28T15:44:25;6.30;99.90
15947;DHT22;8072;52.554;7.966;2024-02-28T15:46:51;6.40;99.90
15947;DHT22;8072;52.554;7.966;2024-02-28T15:49:17;6.40;99.90
15947;DHT22;8072;52.554;7.966;2024-02-28T15:51:45;6.40;99.90
15947;DHT22;8072;52.554;7.966;2024-02-28T15:54:11;6.40;99.90
15947;DHT22;8072;52.554;7.966;2024-02-28T15:56:37;6.40;99.90